Time;durP1;ratioP1;P1;durP2;ratioP2;P2;SDS_P1;SDS_P2;PMS_P1;PMS_P2;Temp;Humidity;BMP_temperature;BMP_pressure;BME280_temperature;BME280_humidity;BME280_pressure;Samples;Min_cycle;Max_cycle;Signal;HPM_P1;HPM_P2
2021/10/18 00:01:24;;;;;;;6.35;4.82;;;4.30;99.90;;;;;;491917;241;27429;-75
2021/10/18 00:03:25;;;;;;;5.57;4.95;;;4.20;99.90;;;;;;491903;241;27509;-75
2021/10/18 00:05:26;;;;;;;7.55;5.22;;;4.20;99.90;;;;;;491928;241;27807;-75
2021/10/18 00:07:28;;;;;;;7.18;4.97;;;4.20;99.90;;;;;;491909;242;27887;-75
2021/10/18 00:09:29;;;;;;;7.85;5.43;;;4.10;99.90;;;;;;491931;241;27848;-75
2021/10/18 00:11:30;;;;;;;5.20;4.47;;;4.10;99.90;;;;;;491920;241;29001;-75
2021/10/18 00:13:31;;;;;;;5.18;4.50;;;4.10;99.90;;;;;;491962;241;27486;-75
2021/10/18 00:15:32;;;;;;;6.57;5.35;;;4.10;99.90;;;;;;491937;241;27443;-75
2021/10/18 00:17:34;;;;;;;5.03;4.53;;;4.10;99.90;;;;;;491937;241;27497;-75
2021/10/18 00:19:35;;;;;;;6.22;4.78;;;4.10;99.90;;;;;;491914;241;27358;-75
2021/10/18 00:21:36;;;;;;;6.32;4.78;;;4.10;99.90;;;;;;491925;242;27501;-75
2021/10/18 00:23:37;;;;;;;5.82;4.53;;;4.00;99.90;;;;;;491937;241;27429;-75
2021/10/18 00:25:39;;;;;;;5.97;4.80;;;4.00;99.90;;;;;;491914;241;27374;-75
2021/10/18 00:27:40;;;;;;;5.35;4.72;;;4.00;99.90;;;;;;491930;241;27416;-75
2021/10/18 00:29:41;;;;;;;5.87;4.60;;;4.00;99.90;;;;;;491950;241;27379;-75
2021/10/18 00:31:42;;;;;;;6.28;5.47;;;4.00;99.90;;;;;;491889;242;27402;-75
2021/10/18 00:33:44;;;;;;;6.62;4.62;;;3.90;99.90;;;;;;491909;241;27984;-75
2021/10/18 00:35:45;;;;;;;5.93;4.90;;;3.90;99.90;;;;;;491910;242;27917;-75
2021/10/18 00:37:46;;;;;;;7.30;5.32;;;3.90;99.90;;;;;;491923;241;27889;-75
2021/10/18 00:39:47;;;;;;;5.70;4.72;;;3.90;99.90;;;;;;491935;241;28936;-75
2021/10/18 00:41:49;;;;;;;4.85;4.35;;;3.90;99.90;;;;;;491915;241;27373;-75
2021/10/18 00:43:51;;;;;;;7.32;5.07;;;4.00;99.90;;;;;;491907;241;27422;-75
2021/10/18 00:45:51;;;;;;;7.40;5.03;;;3.90;99.90;;;;;;491861;242;27377;-75
2021/10/18 00:47:52;;;;;;;5.05;4.57;;;3.90;99.90;;;;;;491879;241;27410;-75
2021/10/18 00:49:54;;;;;;;4.90;4.30;;;3.90;99.90;;;;;;491909;241;27477;-75
2021/10/18 00:51:55;;;;;;;5.50;4.40;;;3.80;99.90;;;;;;491929;241;27391;-75
2021/10/18 00:53:56;;;;;;;6.15;4.72;;;3.80;99.90;;;;;;491953;241;27418;-75
2021/10/18 00:55:57;;;;;;;5.50;4.62;;;3.80;99.90;;;;;;491920;241;27384;-75
2021/10/18 00:57:59;;;;;;;5.35;4.85;;;3.80;99.90;;;;;;491922;241;27415;-74
2021/10/18 01:00:00;;;;;;;5.75;4.60;;;3.70;99.90;;;;;;491914;241;27992;-75
2021/10/18 01:02:01;;;;;;;5.78;4.93;;;3.70;99.90;;;;;;491762;242;27929;-75
2021/10/18 01:04:03;;;;;;;5.90;4.95;;;3.70;99.90;;;;;;491914;241;27930;-74
2021/10/18 01:06:04;;;;;;;6.25;4.82;;;3.70;99.90;;;;;;491923;241;27854;-74
2021/10/18 01:08:05;;;;;;;5.60;4.55;;;3.60;99.90;;;;;;491918;241;27414;-75
2021/10/18 01:10:06;;;;;;;6.75;5.10;;;3.70;99.90;;;;;;491930;242;27504;-75
2021/10/18 01:12:07;;;;;;;5.50;4.90;;;3.60;99.90;;;;;;491953;241;27367;-75
2021/10/18 01:14:09;;;;;;;5.32;4.68;;;3.60;99.90;;;;;;491930;241;27402;-75
2021/10/18 01:16:10;;;;;;;5.40;4.85;;;3.60;99.90;;;;;;491926;241;27446;-75
2021/10/18 01:18:11;;;;;;;6.05;5.12;;;3.60;99.90;;;;;;491874;239;27382;-75
2021/10/18 01:20:12;;;;;;;8.40;4.60;;;3.60;99.90;;;;;;491920;241;27414;-75
2021/10/18 01:22:14;;;;;;;6.82;4.90;;;3.60;99.90;;;;;;491922;241;27387;-74
2021/10/18 01:24:15;;;;;;;7.28;5.20;;;3.50;99.90;;;;;;491923;241;27426;-75
2021/10/18 01:26:16;;;;;;;5.70;4.78;;;3.50;99.90;;;;;;491921;241;27370;-75
2021/10/18 01:28:17;;;;;;;6.57;5.82;;;3.50;99.90;;;;;;491887;241;27916;-75
2021/10/18 01:30:19;;;;;;;5.12;4.62;;;3.50;99.90;;;;;;491927;241;28620;-75
2021/10/18 01:32:20;;;;;;;6.25;4.90;;;3.50;99.90;;;;;;491879;241;27902;-75
2021/10/18 01:34:21;;;;;;;6.20;5.32;;;3.50;99.90;;;;;;491895;241;27897;-75
2021/10/18 01:36:22;;;;;;;5.62;4.40;;;3.50;99.90;;;;;;491916;241;27427;-75
2021/10/18 01:38:24;;;;;;;7.37;5.18;;;3.40;99.90;;;;;;491901;241;27376;-75
2021/10/18 01:40:25;;;;;;;6.37;4.87;;;3.40;99.90;;;;;;491904;241;27406;-74
2021/10/18 01:42:26;;;;;;;5.95;4.97;;;3.40;99.90;;;;;;491829;241;27367;-74
2021/10/18 01:44:27;;;;;;;5.80;4.75;;;3.40;99.90;;;;;;491885;241;27482;-74
2021/10/18 01:46:29;;;;;;;5.80;4.97;;;3.40;99.90;;;;;;491903;241;27474;-75
2021/10/18 01:48:30;;;;;;;7.40;5.03;;;3.40;99.90;;;;;;491903;242;27410;-76
2021/10/18 01:50:31;;;;;;;5.70;4.65;;;3.40;99.90;;;;;;491904;242;27497;-74
2021/10/18 01:52:32;;;;;;;6.40;5.03;;;3.40;99.90;;;;;;491902;241;27367;-75
2021/10/18 01:54:34;;;;;;;6.03;4.93;;;3.50;99.90;;;;;;491893;239;27474;-75
2021/10/18 01:56:35;;;;;;;6.05;4.95;;;3.40;99.90;;;;;;491890;241;27905;-75
2021/10/18 01:58:36;;;;;;;6.65;5.18;;;3.40;99.90;;;;;;491920;241;27853;-74
2021/10/18 02:00:37;;;;;;;8.38;5.70;;;3.50;99.90;;;;;;491911;241;28951;-75
2021/10/18 02:02:39;;;;;;;8.02;5.97;;;3.40;99.90;;;;;;491909;241;27916;-75
2021/10/18 02:04:40;;;;;;;7.47;5.32;;;3.40;99.90;;;;;;491906;241;27429;-76
2021/10/18 02:06:41;;;;;;;6.93;5.28;;;3.40;99.90;;;;;;491917;241;27423;-75
2021/10/18 02:08:42;;;;;;;7.78;5.50;;;3.40;99.90;;;;;;491910;241;27375;-75
2021/10/18 02:10:44;;;;;;;8.27;5.70;;;3.40;99.90;;;;;;491903;241;27414;-75
2021/10/18 02:12:45;;;;;;;7.50;6.12;;;3.40;99.90;;;;;;491843;242;27458;-75
2021/10/18 02:14:46;;;;;;;7.28;5.22;;;3.40;99.90;;;;;;491895;241;27418;-75
2021/10/18 02:16:47;;;;;;;7.75;5.65;;;3.40;99.90;;;;;;491790;241;27516;-74
2021/10/18 02:18:49;;;;;;;7.47;5.32;;;3.40;99.90;;;;;;491951;241;27390;-74
2021/10/18 02:20:50;;;;;;;6.12;5.07;;;3.40;99.90;;;;;;491937;242;27418;-75
2021/10/18 02:22:51;;;;;;;6.45;5.07;;;3.40;99.90;;;;;;491933;241;27376;-75
2021/10/18 02:24:52;;;;;;;6.20;5.20;;;3.30;99.90;;;;;;491905;241;28026;-73
2021/10/18 02:26:56;;;;;;;5.18;4.30;;;;;;;;;;491863;241;27898;-75
2021/10/18 02:28:57;;;;;;;6.40;4.80;;;3.30;99.90;;;;;;491910;242;26249;-74
2021/10/18 02:30:58;;;;;;;5.80;4.57;;;3.30;99.90;;;;;;491917;241;27490;-75
2021/10/18 02:32:59;;;;;;;6.18;4.78;;;3.30;99.90;;;;;;491919;241;27406;-75
2021/10/18 02:35:01;;;;;;;6.50;5.35;;;3.20;99.90;;;;;;491951;241;27448;-74
2021/10/18 02:37:02;;;;;;;5.68;4.85;;;3.20;99.90;;;;;;491919;241;27407;-74
2021/10/18 02:39:03;;;;;;;7.62;5.43;;;3.20;99.90;;;;;;491929;241;27382;-75
2021/10/18 02:41:04;;;;;;;6.47;4.80;;;3.20;99.90;;;;;;491924;241;27407;-75
2021/10/18 02:43:06;;;;;;;10.00;5.82;;;3.20;99.90;;;;;;491911;241;27430;-74
2021/10/18 02:45:11;;;;;;;6.90;5.22;;;3.20;99.90;;;;;;491928;242;27839;-75
2021/10/18 02:47:08;;;;;;;8.13;4.93;;;3.20;99.90;;;;;;491737;241;27889;-74
2021/10/18 02:49:09;;;;;;;8.50;6.10;;;3.20;99.90;;;;;;491935;241;27976;-74
2021/10/18 02:51:11;;;;;;;7.20;5.75;;;3.10;99.90;;;;;;491904;241;27990;-74
2021/10/18 02:53:12;;;;;;;7.28;5.68;;;3.10;99.90;;;;;;491932;241;27418;-74
2021/10/18 02:55:13;;;;;;;6.55;4.93;;;3.10;99.90;;;;;;491920;241;27370;-74
2021/10/18 02:57:14;;;;;;;8.90;6.43;;;3.10;99.90;;;;;;491901;242;27504;-74
2021/10/18 02:59:16;;;;;;;9.35;5.75;;;3.10;99.90;;;;;;491918;241;27468;-75
2021/10/18 03:01:17;;;;;;;9.40;5.85;;;3.10;99.90;;;;;;491912;241;27477;-74
2021/10/18 03:03:18;;;;;;;8.63;6.62;;;3.10;99.90;;;;;;491933;241;27421;-74
2021/10/18 03:05:19;;;;;;;7.90;6.25;;;3.10;99.90;;;;;;491954;241;27442;-74
2021/10/18 03:07:22;;;;;;;9.65;6.68;;;3.10;99.90;;;;;;491914;241;27493;-74
2021/10/18 03:09:22;;;;;;;8.82;6.32;;;3.10;99.90;;;;;;491885;241;27410;-74
2021/10/18 03:11:23;;;;;;;7.10;5.62;;;3.10;99.90;;;;;;491921;241;27383;-74
2021/10/18 03:13:24;;;;;;;10.57;6.50;;;3.10;99.90;;;;;;491911;241;27906;-74
2021/10/18 03:15:26;;;;;;;7.80;5.68;;;3.10;99.90;;;;;;491899;241;27840;-74
2021/10/18 03:17:27;;;;;;;11.45;6.15;;;3.10;99.90;;;;;;491907;241;28004;-74
2021/10/18 03:19:28;;;;;;;8.73;5.80;;;3.10;99.90;;;;;;491934;241;27405;-75
2021/10/18 03:21:29;;;;;;;8.85;6.15;;;3.10;99.90;;;;;;491930;239;27511;-74
2021/10/18 03:23:31;;;;;;;12.80;7.03;;;3.10;99.90;;;;;;491912;241;27497;-75
2021/10/18 03:25:34;;;;;;;9.90;6.25;;;3.10;99.90;;;;;;491912;241;27447;-75
2021/10/18 03:27:33;;;;;;;9.40;6.05;;;3.00;99.90;;;;;;491773;242;27429;-74
2021/10/18 03:29:34;;;;;;;8.43;5.70;;;3.00;99.90;;;;;;491831;239;27637;-74
2021/10/18 03:31:36;;;;;;;10.45;6.72;;;3.00;99.90;;;;;;491923;241;27387;-75
2021/10/18 03:33:37;;;;;;;9.55;6.60;;;3.00;99.90;;;;;;491914;241;27514;-74
2021/10/18 03:35:38;;;;;;;9.57;6.53;;;3.00;99.90;;;;;;491930;241;27870;-74
2021/10/18 03:37:39;;;;;;;8.15;6.32;;;3.00;99.90;;;;;;491894;241;28027;-74
2021/10/18 03:39:41;;;;;;;9.27;6.78;;;3.10;99.90;;;;;;491930;241;27917;-74
2021/10/18 03:41:42;;;;;;;8.40;5.75;;;3.10;99.90;;;;;;491913;241;27849;-74
2021/10/18 03:43:43;;;;;;;8.95;6.30;;;3.00;99.90;;;;;;491903;241;27418;-74
2021/10/18 03:45:44;;;;;;;10.73;6.37;;;3.00;99.90;;;;;;491900;241;27449;-75
2021/10/18 03:47:46;;;;;;;9.50;6.43;;;3.00;99.90;;;;;;491912;241;27414;-74
2021/10/18 03:49:47;;;;;;;8.75;6.37;;;3.00;99.90;;;;;;491922;241;27409;-75
2021/10/18 03:51:48;;;;;;;9.40;6.35;;;3.00;99.90;;;;;;491936;241;27442;-74
2021/10/18 03:53:49;;;;;;;8.68;5.80;;;3.00;99.90;;;;;;491937;241;27578;-74
2021/10/18 03:55:51;;;;;;;8.38;6.28;;;3.00;99.90;;;;;;491916;241;27383;-75
2021/10/18 03:57:52;;;;;;;8.73;6.60;;;3.10;99.90;;;;;;491883;242;27391;-75
2021/10/18 03:59:53;;;;;;;9.70;6.70;;;3.00;99.90;;;;;;491879;241;27496;-75
2021/10/18 04:01:54;;;;;;;9.05;6.30;;;3.00;99.90;;;;;;491905;242;28118;-75
2021/10/18 04:03:56;;;;;;;9.20;6.40;;;3.00;99.90;;;;;;491919;240;27937;-74
2021/10/18 04:05:57;;;;;;;11.27;7.15;;;2.90;99.90;;;;;;491927;241;28647;-75
2021/10/18 04:07:58;;;;;;;9.88;6.70;;;2.90;99.90;;;;;;491921;242;27868;-75
2021/10/18 04:09:59;;;;;;;8.43;6.05;;;2.90;99.90;;;;;;491908;241;27422;-74
2021/10/18 04:12:01;;;;;;;8.48;6.07;;;2.90;99.90;;;;;;491929;241;27362;-75
2021/10/18 04:14:02;;;;;;;8.93;5.93;;;2.90;99.90;;;;;;491924;241;27415;-74
2021/10/18 04:16:03;;;;;;;8.45;6.25;;;2.90;99.90;;;;;;491930;241;27519;-75
2021/10/18 04:18:04;;;;;;;9.32;5.45;;;2.90;99.90;;;;;;491948;242;27414;-75
2021/10/18 04:20:06;;;;;;;9.45;6.28;;;3.00;99.90;;;;;;491949;241;27536;-74
2021/10/18 04:22:07;;;;;;;10.45;7.22;;;2.90;99.90;;;;;;491954;241;27382;-74
2021/10/18 04:24:08;;;;;;;10.10;6.15;;;2.90;99.90;;;;;;491947;241;27413;-74
2021/10/18 04:26:12;;;;;;;9.32;6.60;;;;;;;;;;491900;242;27426;-75
2021/10/18 04:28:14;;;;;;;9.73;6.62;;;;;;;;;;491661;242;26261;-74
2021/10/18 04:30:16;;;;;;;10.27;6.05;;;;;;;;;;491836;242;26689;-74
2021/10/18 04:32:18;;;;;;;10.35;6.47;;;;;;;;;;491881;242;26308;-74
2021/10/18 04:34:20;;;;;;;9.20;6.05;;;;;;;;;;491899;242;26842;-74
2021/10/18 04:36:22;;;;;;;9.23;5.70;;;;;;;;;;491906;242;26284;-74
2021/10/18 04:38:25;;;;;;;8.63;6.25;;;;;;;;;;491915;242;26820;-74
2021/10/18 04:40:27;;;;;;;8.73;6.05;;;;;;;;;;491902;242;26304;-74
2021/10/18 04:42:29;;;;;;;9.32;6.05;;;;;;;;;;491916;242;27866;-74
2021/10/18 04:44:30;;;;;;;9.05;6.35;;;3.00;99.90;;;;;;491926;242;26306;-75
2021/10/18 04:46:31;;;;;;;10.15;6.82;;;2.90;99.90;;;;;;491924;242;27457;-75
2021/10/18 04:48:32;;;;;;;10.55;6.55;;;2.90;99.90;;;;;;491922;241;27402;-75
2021/10/18 04:50:34;;;;;;;8.20;6.15;;;2.80;99.90;;;;;;491911;241;27461;-75
2021/10/18 04:52:35;;;;;;;8.60;6.07;;;2.80;99.90;;;;;;491909;241;27371;-75
2021/10/18 04:54:36;;;;;;;9.25;6.32;;;2.70;99.90;;;;;;491913;241;27516;-75
2021/10/18 04:56:37;;;;;;;7.50;5.87;;;2.80;99.90;;;;;;491919;241;27482;-75
2021/10/18 04:58:39;;;;;;;8.13;5.93;;;2.70;99.90;;;;;;491891;241;27430;-75
2021/10/18 05:00:41;;;;;;;8.60;6.32;;;2.80;99.90;;;;;;491914;241;27407;-75
2021/10/18 05:02:41;;;;;;;7.90;5.75;;;2.70;99.90;;;;;;491903;241;27434;-75
2021/10/18 05:04:42;;;;;;;9.85;5.95;;;2.70;99.90;;;;;;491914;241;27998;-75
2021/10/18 05:06:44;;;;;;;12.95;6.90;;;2.60;99.90;;;;;;491915;241;27827;-75
2021/10/18 05:08:45;;;;;;;8.35;6.25;;;2.70;99.90;;;;;;491879;241;27941;-75
2021/10/18 05:10:47;;;;;;;7.68;5.55;;;2.60;99.90;;;;;;491902;241;27480;-75
2021/10/18 05:12:47;;;;;;;9.77;6.72;;;2.70;99.90;;;;;;491906;241;27482;-75
2021/10/18 05:14:49;;;;;;;8.60;5.47;;;2.70;99.90;;;;;;491929;241;27485;-75
2021/10/18 05:16:52;;;;;;;10.02;5.82;;;2.70;99.90;;;;;;491925;242;27475;-75
2021/10/18 05:18:51;;;;;;;7.20;5.82;;;2.70;99.90;;;;;;491746;242;27512;-75
2021/10/18 05:20:52;;;;;;;9.75;6.53;;;2.70;99.90;;;;;;491913;241;27752;-75
2021/10/18 05:22:54;;;;;;;8.40;5.80;;;2.70;99.90;;;;;;491912;242;27387;-75
2021/10/18 05:24:55;;;;;;;8.07;6.03;;;2.70;99.90;;;;;;491906;241;27406;-75
2021/10/18 05:26:56;;;;;;;8.57;5.93;;;2.80;99.90;;;;;;491883;241;27369;-75
2021/10/18 05:28:57;;;;;;;7.25;6.12;;;2.80;99.90;;;;;;491893;241;27423;-75
2021/10/18 05:30:59;;;;;;;7.93;6.15;;;2.80;99.90;;;;;;491888;242;27890;-74
2021/10/18 05:33:00;;;;;;;11.38;5.85;;;2.80;99.90;;;;;;491924;241;27942;-75
2021/10/18 05:35:01;;;;;;;9.68;6.00;;;2.70;99.90;;;;;;491912;242;29098;-75
2021/10/18 05:37:02;;;;;;;6.87;5.80;;;2.70;99.90;;;;;;491913;241;27375;-75
2021/10/18 05:39:04;;;;;;;7.82;5.40;;;2.70;99.90;;;;;;491886;241;27481;-75
2021/10/18 05:41:05;;;;;;;8.68;5.78;;;2.70;99.90;;;;;;491911;241;27410;-75
2021/10/18 05:43:06;;;;;;;11.38;6.57;;;2.70;99.90;;;;;;491894;241;27447;-75
2021/10/18 05:45:07;;;;;;;8.13;5.87;;;2.70;99.90;;;;;;491922;241;27408;-74
2021/10/18 05:47:09;;;;;;;7.95;6.32;;;2.60;99.90;;;;;;491909;241;27461;-75
2021/10/18 05:49:10;;;;;;;8.02;5.90;;;2.60;99.90;;;;;;491872;241;27425;-74
2021/10/18 05:51:11;;;;;;;8.23;6.15;;;2.60;99.90;;;;;;491902;241;27470;-75
2021/10/18 05:53:12;;;;;;;7.35;5.40;;;2.60;99.90;;;;;;491910;241;27374;-75
2021/10/18 05:55:14;;;;;;;9.32;5.85;;;2.60;99.90;;;;;;491918;241;27513;-75
2021/10/18 05:57:15;;;;;;;8.30;5.87;;;2.60;99.90;;;;;;491883;242;28572;-75
2021/10/18 05:59:16;;;;;;;8.95;6.70;;;2.60;99.90;;;;;;491893;241;27890;-75
2021/10/18 06:01:17;;;;;;;8.55;6.40;;;2.50;99.90;;;;;;491904;242;27890;-74
2021/10/18 06:03:19;;;;;;;8.88;5.97;;;2.50;99.90;;;;;;492018;241;27940;-76
2021/10/18 06:05:20;;;;;;;8.52;5.68;;;2.50;99.90;;;;;;491730;242;27402;-75
2021/10/18 06:07:21;;;;;;;9.00;6.60;;;2.50;99.90;;;;;;491800;241;27519;-75
2021/10/18 06:09:22;;;;;;;11.35;7.22;;;2.60;99.90;;;;;;491866;241;27374;-75
2021/10/18 06:11:24;;;;;;;10.40;6.65;;;2.60;99.90;;;;;;491797;241;27554;-75
2021/10/18 06:13:25;;;;;;;9.48;6.87;;;2.70;99.90;;;;;;491885;241;27394;-75
2021/10/18 06:15:26;;;;;;;9.38;7.25;;;2.70;99.90;;;;;;491874;241;27582;-76
2021/10/18 06:17:27;;;;;;;11.75;6.93;;;2.60;99.90;;;;;;491867;242;27465;-74
2021/10/18 06:19:29;;;;;;;8.57;6.30;;;2.60;99.90;;;;;;491757;241;27378;-75
2021/10/18 06:21:30;;;;;;;10.88;7.12;;;2.50;99.90;;;;;;491746;241;27965;-74
2021/10/18 06:23:31;;;;;;;11.00;6.75;;;2.50;99.90;;;;;;491878;242;27858;-75
2021/10/18 06:25:32;;;;;;;9.95;7.10;;;2.50;99.90;;;;;;491892;242;27883;-75
2021/10/18 06:27:34;;;;;;;10.48;7.10;;;2.60;99.90;;;;;;491923;242;27514;-75
2021/10/18 06:29:35;;;;;;;10.18;6.68;;;2.60;99.90;;;;;;491997;241;27395;-75
2021/10/18 06:31:36;;;;;;;9.43;6.57;;;2.60;99.90;;;;;;492017;241;27467;-75
2021/10/18 06:33:38;;;;;;;9.63;6.93;;;2.60;99.90;;;;;;492049;241;27370;-76
2021/10/18 06:35:39;;;;;;;9.85;6.57;;;2.70;99.90;;;;;;492057;241;27405;-75
2021/10/18 06:37:40;;;;;;;9.98;6.93;;;2.70;99.90;;;;;;492054;241;27434;-75
2021/10/18 06:39:41;;;;;;;9.30;6.45;;;2.70;99.90;;;;;;492010;241;27367;-75
2021/10/18 06:41:42;;;;;;;8.68;6.00;;;2.70;99.90;;;;;;492014;241;27500;-76
2021/10/18 06:43:44;;;;;;;10.60;6.97;;;2.80;99.90;;;;;;492006;241;27457;-75
2021/10/18 06:45:45;;;;;;;10.20;6.78;;;2.80;99.90;;;;;;491936;241;27811;-75
2021/10/18 06:47:46;;;;;;;9.18;6.87;;;2.90;99.90;;;;;;491963;241;27997;-75
2021/10/18 06:49:48;;;;;;;7.93;6.32;;;2.90;99.90;;;;;;491941;241;29018;-75
2021/10/18 06:51:52;;;;;;;9.95;6.57;;;2.90;99.90;;;;;;491944;241;29099;-75
2021/10/18 06:53:54;;;;;;;9.35;6.45;;;3.00;99.90;;;;;;491695;242;27426;-75
2021/10/18 06:55:51;;;;;;;10.10;6.62;;;3.00;99.90;;;;;;491621;242;27473;-75
2021/10/18 06:57:53;;;;;;;10.70;6.68;;;3.10;99.90;;;;;;491937;241;27408;-75
2021/10/18 06:59:54;;;;;;;8.18;5.85;;;3.10;99.90;;;;;;491904;241;27374;-75
2021/10/18 07:01:55;;;;;;;8.25;6.20;;;3.10;99.90;;;;;;491928;241;27421;-76
2021/10/18 07:03:56;;;;;;;7.78;5.90;;;3.20;99.90;;;;;;491931;240;27474;-75
2021/10/18 07:06:00;;;;;;;8.98;6.35;;;3.30;99.90;;;;;;491972;241;27358;-75
2021/10/18 07:07:59;;;;;;;9.23;5.93;;;3.40;99.90;;;;;;491893;242;27416;-75
2021/10/18 07:10:00;;;;;;;8.77;5.95;;;3.50;99.90;;;;;;492028;242;27426;-75
2021/10/18 07:12:01;;;;;;;8.60;6.65;;;3.60;99.90;;;;;;492047;241;27991;-77
2021/10/18 07:14:03;;;;;;;11.30;6.72;;;3.80;99.90;;;;;;492021;242;27982;-75
2021/10/18 07:16:04;;;;;;;8.77;6.62;;;3.70;99.90;;;;;;492011;241;27379;-75
2021/10/18 07:18:05;;;;;;;9.23;6.40;;;3.50;99.90;;;;;;491962;241;27382;-75
2021/10/18 07:20:06;;;;;;;11.30;6.55;;;3.50;99.90;;;;;;491918;241;27475;-75
2021/10/18 07:22:08;;;;;;;9.75;6.55;;;3.50;99.90;;;;;;491933;241;27490;-75
2021/10/18 07:24:09;;;;;;;10.13;6.75;;;3.50;99.90;;;;;;491925;241;27501;-76
2021/10/18 07:26:10;;;;;;;10.52;6.75;;;3.60;99.90;;;;;;491937;241;27413;-76
2021/10/18 07:28:11;;;;;;;10.68;7.05;;;3.70;99.90;;;;;;491955;241;27418;-76
2021/10/18 07:30:13;;;;;;;10.20;7.15;;;3.70;99.90;;;;;;491936;241;27426;-75
2021/10/18 07:32:14;;;;;;;9.93;6.50;;;3.80;99.90;;;;;;491918;242;27467;-75
2021/10/18 07:34:17;;;;;;;8.00;5.70;;;4.00;99.90;;;;;;491972;241;27881;-75
2021/10/18 07:36:27;;;;;;;9.40;6.68;;;4.00;99.90;;;;;;491787;242;27818;-75
2021/10/18 07:38:24;;;;;;;8.48;6.00;;;4.10;99.90;;;;;;491651;242;27362;-76
2021/10/18 07:40:25;;;;;;;9.70;7.07;;;4.30;99.90;;;;;;491904;241;27421;-76
2021/10/18 07:42:26;;;;;;;12.02;7.07;;;4.60;99.90;;;;;;491952;242;27364;-75
2021/10/18 07:44:28;;;;;;;9.57;7.25;;;5.00;99.90;;;;;;491933;241;27406;-75
2021/10/18 07:46:29;;;;;;;12.00;7.97;;;5.20;99.90;;;;;;491877;241;27359;-75
2021/10/18 07:48:30;;;;;;;12.25;8.65;;;5.30;99.90;;;;;;491921;241;28227;-76
2021/10/18 07:50:31;;;;;;;12.48;7.97;;;5.50;99.90;;;;;;491929;241;28044;-75
2021/10/18 07:52:33;;;;;;;10.45;7.62;;;5.50;99.90;;;;;;491948;242;27458;-76
2021/10/18 07:54:34;;;;;;;12.63;8.68;;;5.50;99.90;;;;;;491914;241;27486;-75
2021/10/18 07:56:35;;;;;;;9.90;6.90;;;5.60;99.90;;;;;;491947;241;27449;-76
2021/10/18 07:58:36;;;;;;;10.93;7.28;;;5.70;99.90;;;;;;491907;241;27411;-76
2021/10/18 08:00:38;;;;;;;10.15;7.15;;;5.80;99.90;;;;;;491965;241;27418;-76
2021/10/18 08:02:39;;;;;;;12.13;7.53;;;5.80;99.90;;;;;;491954;241;27383;-76
2021/10/18 08:04:40;;;;;;;12.57;7.55;;;6.00;99.90;;;;;;491912;241;28242;-75
2021/10/18 08:06:41;;;;;;;13.30;8.48;;;6.00;99.90;;;;;;491940;241;28731;-75
2021/10/18 08:08:47;;;;;;;13.25;9.60;;;6.20;99.90;;;;;;491930;241;27494;-76
2021/10/18 08:10:44;;;;;;;13.60;9.00;;;6.30;99.90;;;;;;491603;242;27439;-75
2021/10/18 08:12:45;;;;;;;15.30;9.38;;;6.30;99.90;;;;;;491964;241;27462;-76
2021/10/18 08:14:46;;;;;;;14.73;9.32;;;6.50;99.90;;;;;;491952;242;27411;-75
2021/10/18 08:16:48;;;;;;;14.55;10.02;;;6.50;99.90;;;;;;491945;241;27505;-76
2021/10/18 08:18:50;;;;;;;16.20;11.00;;;6.60;99.90;;;;;;491913;241;27855;-76
2021/10/18 08:20:50;;;;;;;15.90;10.60;;;6.60;99.90;;;;;;491855;241;27497;-75
2021/10/18 08:22:51;;;;;;;13.02;9.27;;;6.70;99.90;;;;;;491874;239;27446;-76
2021/10/18 08:24:53;;;;;;;10.80;8.40;;;6.70;99.90;;;;;;491753;241;27607;-76
2021/10/18 08:26:54;;;;;;;13.27;9.77;;;6.70;99.90;;;;;;491956;241;27418;-76
2021/10/18 08:28:55;;;;;;;14.05;9.60;;;6.80;99.90;;;;;;491952;241;27465;-76
2021/10/18 08:30:56;;;;;;;15.02;10.05;;;6.90;99.90;;;;;;491973;241;27984;-75
2021/10/18 08:32:58;;;;;;;13.38;8.75;;;7.00;99.90;;;;;;491980;241;27374;-76
2021/10/18 08:34:59;;;;;;;12.98;8.73;;;7.00;99.90;;;;;;491964;241;27383;-76
2021/10/18 08:37:00;;;;;;;12.30;8.50;;;7.10;99.90;;;;;;491989;241;27421;-76
2021/10/18 08:41:21;;;;;;;10.55;8.60;;;7.40;99.90;;;;;;491985;242;27383;-75
2021/10/18 08:45:20;;;;;;;14.33;8.50;;;7.50;99.90;;;;;;492029;241;27440;-76
2021/10/18 08:47:22;;;;;;;11.87;8.53;;;7.60;99.90;;;;;;492048;241;28719;-76
2021/10/18 08:49:23;;;;;;;11.67;7.90;;;7.60;99.90;;;;;;492063;241;28794;-76
2021/10/18 08:51:24;;;;;;;11.93;8.30;;;7.70;99.90;;;;;;492045;241;27734;-76
2021/10/18 08:53:25;;;;;;;9.43;6.90;;;7.80;99.90;;;;;;492085;241;28331;-76
2021/10/18 08:55:27;;;;;;;10.40;7.30;;;8.00;99.90;;;;;;492050;241;28415;-76
2021/10/18 08:57:28;;;;;;;9.17;7.20;;;8.10;99.90;;;;;;492082;241;28519;-76
2021/10/18 08:59:29;;;;;;;9.50;6.80;;;8.20;99.90;;;;;;492056;241;28466;-76
2021/10/18 09:01:30;;;;;;;9.07;6.83;;;8.20;99.90;;;;;;492076;242;27995;-76
2021/10/18 09:03:32;;;;;;;8.47;6.57;;;8.30;99.90;;;;;;492068;241;27848;-75
2021/10/18 09:05:33;;;;;;;8.17;6.13;;;8.40;99.90;;;;;;491939;242;27718;-75
2021/10/18 09:07:34;;;;;;;6.60;5.70;;;8.40;99.90;;;;;;492051;241;27498;-76
2021/10/18 09:09:35;;;;;;;6.70;5.90;;;8.40;99.90;;;;;;492050;241;27949;-76
2021/10/18 09:11:37;;;;;;;8.33;6.13;;;8.50;99.90;;;;;;492077;241;27944;-76
2021/10/18 09:13:38;;;;;;;8.97;6.90;;;8.60;99.90;;;;;;492048;241;27739;-75
2021/10/18 09:15:39;;;;;;;9.77;7.40;;;8.70;99.90;;;;;;492056;241;27559;-76
2021/10/18 09:17:40;;;;;;;8.27;7.10;;;8.80;99.90;;;;;;492030;241;28010;-76
2021/10/18 09:19:42;;;;;;;8.23;6.30;;;8.70;99.90;;;;;;492007;241;27893;-76
2021/10/18 09:21:43;;;;;;;6.90;5.80;;;8.80;99.90;;;;;;492068;241;27849;-75
2021/10/18 09:23:44;;;;;;;6.70;5.70;;;8.80;99.90;;;;;;492097;241;27852;-75
2021/10/18 09:25:45;;;;;;;7.77;6.70;;;8.90;99.90;;;;;;491990;242;27897;-75
2021/10/18 09:27:47;;;;;;;7.47;5.40;;;9.00;99.90;;;;;;491998;242;28304;-75
2021/10/18 09:29:48;;;;;;;7.40;6.13;;;9.10;99.90;;;;;;491973;241;28463;-75
2021/10/18 09:31:49;;;;;;;5.50;4.93;;;9.20;99.90;;;;;;491975;241;28487;-75
2021/10/18 09:33:56;;;;;;;6.00;5.30;;;9.10;99.90;;;;;;491985;241;28254;-76
2021/10/18 09:35:52;;;;;;;6.03;4.93;;;9.20;99.90;;;;;;491609;242;28225;-75
2021/10/18 09:37:53;;;;;;;6.43;5.63;;;9.20;99.90;;;;;;491975;241;28346;-75
2021/10/18 09:39:54;;;;;;;6.40;5.30;;;9.20;99.90;;;;;;491972;241;27861;-75
2021/10/18 09:41:58;;;;;;;5.70;5.10;;;9.30;99.90;;;;;;491997;241;27406;-76
2021/10/18 09:44:01;;;;;;;6.60;5.73;;;9.40;99.90;;;;;;491883;241;27611;-75
2021/10/18 09:46:00;;;;;;;6.77;6.07;;;9.40;99.90;;;;;;491693;242;27527;-74
2021/10/18 10:52:52;;;;;;;4.50;4.07;;;10.50;99.90;;;;;;491963;241;27913;-75
2021/10/18 10:54:47;;;;;;;4.93;4.43;;;10.40;99.90;;;;;;491522;242;27579;-75
2021/10/18 10:56:59;;;;;;;5.77;5.17;;;10.50;99.90;;;;;;491986;241;27841;-75
2021/10/18 10:58:53;;;;;;;6.53;5.00;;;10.50;99.90;;;;;;491457;242;27887;-75
2021/10/18 11:00:54;;;;;;;5.07;4.37;;;10.50;99.90;;;;;;491982;241;28005;-75
2021/10/18 11:02:55;;;;;;;5.90;5.30;;;10.40;99.90;;;;;;491972;241;27909;-75
2021/10/18 11:04:57;;;;;;;5.27;4.77;;;10.50;99.90;;;;;;491996;241;27908;-75
2021/10/18 11:06:58;;;;;;;5.80;5.20;;;10.60;99.90;;;;;;491968;241;27947;-75
2021/10/18 11:08:59;;;;;;;6.17;5.10;;;10.60;99.90;;;;;;491960;241;27865;-75
2021/10/18 11:11:01;;;;;;;6.57;5.10;;;10.70;99.90;;;;;;491972;242;27942;-75
2021/10/18 11:13:02;;;;;;;6.13;5.40;;;10.80;99.90;;;;;;492011;241;28064;-75
2021/10/18 11:15:03;;;;;;;6.00;5.20;;;10.70;99.90;;;;;;491978;241;28555;-75
2021/10/18 11:17:04;;;;;;;6.03;5.43;;;10.70;99.90;;;;;;491981;241;28390;-75
2021/10/18 11:19:06;;;;;;;6.27;5.00;;;10.70;99.90;;;;;;491963;241;28400;-75
2021/10/18 11:21:07;;;;;;;6.77;5.00;;;10.70;99.90;;;;;;491943;241;27891;-76
2021/10/18 11:23:08;;;;;;;5.77;4.67;;;10.80;99.90;;;;;;491980;241;27709;-75
2021/10/18 11:25:09;;;;;;;5.33;4.63;;;10.80;99.90;;;;;;491982;241;27887;-75
2021/10/18 11:27:11;;;;;;;4.90;4.40;;;10.80;99.90;;;;;;491986;241;27871;-75
2021/10/18 11:29:12;;;;;;;6.10;5.50;;;10.80;99.90;;;;;;491993;241;27653;-75
2021/10/18 11:31:13;;;;;;;5.30;4.77;;;11.00;99.90;;;;;;492005;241;27844;-75
2021/10/18 11:33:16;;;;;;;6.60;5.20;;;11.10;99.90;;;;;;491966;241;27711;-76
2021/10/18 11:35:16;;;;;;;6.20;4.70;;;11.20;99.90;;;;;;491900;241;27981;-76
2021/10/18 11:37:17;;;;;;;5.67;5.10;;;11.10;99.90;;;;;;491981;241;28039;-75
2021/10/18 11:39:21;;;;;;;5.60;4.97;;;11.10;99.90;;;;;;491957;242;28635;-76
2021/10/18 11:41:19;;;;;;;6.50;5.30;;;11.10;99.90;;;;;;491816;242;28593;-75
2021/10/18 11:43:22;;;;;;;5.10;4.60;;;11.10;99.90;;;;;;491964;241;27720;-75
2021/10/18 11:45:22;;;;;;;5.13;4.60;;;11.30;99.90;;;;;;491777;242;27902;-75
2021/10/18 11:47:23;;;;;;;8.93;6.47;;;11.50;99.90;;;;;;491980;241;27995;-75
2021/10/18 11:49:24;;;;;;;5.57;4.97;;;11.50;99.90;;;;;;491939;241;27861;-75